Terminal Aerodrome Forecast
Issued by NWS

Home | Current Version | Previous Version | Text Only | Print | Product List | Glossary On
Versions: 1 2 3 4 5 6 7 8 9 10 11 12
000
FTUS42 KGSP 161121
TAFAND
TAF
KAND 161121Z 1612/1712 00000KT P6SM SCT250
     FM161500 VRB03KT P6SM FEW250
     FM162000 22006KT P6SM FEW250=

USA.gov is the U.S. government's official web portal to all federal, state and local government web resources and services.